Skip Navigation Links Skip Navigation Links

Current Weather

Indiana County/Jimmy Stewart Fld/, Indiana, Penn.

For information only: do not use for flight planning or navigation.
Latest weather
Observation time Tuesday, January 26, 2021 7:55 PM EST
Local time Tuesday, January 26, 2021 8:27 PM EST
Flight conditions Marginal Visual Meteorological Conditions
Winds
Wind direction West (280°)
Wind speed 13 mph
Wind gusting to 18 mph
Visibility 10 mi.
Sky condition
Ceiling 2,200 ft. overcast
Cloud layer overcast 2,200 ft.
Temperature 39°F
Dewpoint 37°F
Altimeter 29.83 in.Hg
Derived measurements
Relative humidity 93%
Wind chill 32°F
Density altitude 290 ft.
Remarks
Fully automated report.
METAR KIDI 270055Z AUTO 28011G16KT 10SM OVC022 04/03 A2983 RMK A01

Settings

Location code

InnerDrive.Weather 4.0.6770.0 Release CLR 4.0.30319.42000
Copyright ©2018 Inner Drive Technology. All rights reserved. Portions Copyright ©1986-2018 David Braverman.

Find weather

Site navigation


Skip Navigation Links

Place info

Page info

PayPal - The safer, easier way to pay online!

Return home.

Copyright ©2021 Inner Drive Technology. Purveyors of fine, hand-crafted computer software. Page printed 2021-01-27T01:27:27 UTC.